»·PEaware :: N805RJ L08-F70

N805RJ :: L08-F70

FLIGHT INFORMATION

Flight Status: Arrived
Operator: Privately registered:
United States
More flights under this callsign
Pilot: Rickie J. (22768)
Aircraft: CESSNA 172 SKYHAWK
(C172)
More flights by this aircraft type
Origin: L08 Borrego Valley
United States
Destination: F70 French Valley
United States
More flights between these airports :: More routes between these airports
Route: KARRO V460 V208 V186 TANNR
File this flight plan on PilotEdge
Remarks:
Altitude:
(Current/Filed)
8,500ft
Speed:
(Current/Filed)
120kts
Departed: 26-Jun-20 08:03 AM
Arrived: 26-Jun-20 08:46 AM
Distance/Time
Traveled:
45nm/0:43
Distance/Time
To Go:
Arrived

Flight Plot

Page will automatically refresh every two minutes.

Flight plan parsing failed; only flown route is shown


Map Options




Map Legend


Flown Route
Filed Route
Departure Airport
Arrival Airport
Navaid (VOR, NDB)
Fix

Horizontal Profiles

Position Reports

Time Latitude Longitude Heading Altitude Ground
Speed
26-Jun-20 07:25 33.257733 -116.325584 182 524ft 0kts
26-Jun-20 07:26 33.257733 -116.325584 182 524ft 0kts
26-Jun-20 07:27 33.257733 -116.325584 182 524ft 0kts
26-Jun-20 07:28 33.257733 -116.325584 182 524ft 0kts
26-Jun-20 07:29 33.257733 -116.325584 182 524ft 0kts
26-Jun-20 07:30 33.257733 -116.325584 182 524ft 0kts
26-Jun-20 07:31 33.257733 -116.325584 182 524ft 0kts
26-Jun-20 07:32 33.257733 -116.325584 182 524ft 0kts
26-Jun-20 07:33 33.257733 -116.325584 182 524ft 0kts
26-Jun-20 07:34 33.257733 -116.325584 182 524ft 0kts
26-Jun-20 07:35 33.257733 -116.325584 182 524ft 0kts
26-Jun-20 07:36 33.257733 -116.325584 182 524ft 0kts
26-Jun-20 07:37 33.257733 -116.325584 182 524ft 0kts
26-Jun-20 07:38 33.257733 -116.325584 182 524ft 0kts
26-Jun-20 07:39 33.257733 -116.325584 182 524ft 0kts
26-Jun-20 07:40 33.257733 -116.325584 182 524ft 0kts
26-Jun-20 07:42 33.257733 -116.325584 182 524ft 0kts
26-Jun-20 07:43 33.257733 -116.325584 182 524ft 0kts
26-Jun-20 07:44 33.257733 -116.325584 182 524ft 0kts
26-Jun-20 07:45 33.257733 -116.325584 182 524ft 0kts
26-Jun-20 07:46 33.257733 -116.325584 182 524ft 0kts
26-Jun-20 07:47 33.257724 -116.325585 182 524ft 0kts
26-Jun-20 07:48 33.257585 -116.325562 140 524ft 0kts
26-Jun-20 07:49 33.257595 -116.325062 87 524ft 2kts
26-Jun-20 07:50 33.257626 -116.324033 87 524ft 3kts
26-Jun-20 07:51 33.257911 -116.322790 41 524ft 4kts
26-Jun-20 07:52 33.258323 -116.321564 91 524ft 4kts
26-Jun-20 07:53 33.258348 -116.320147 88 524ft 4kts
26-Jun-20 07:54 33.258369 -116.318722 88 524ft 4kts
26-Jun-20 07:55 33.258392 -116.317266 88 524ft 4kts
26-Jun-20 07:55 33.258409 -116.316062 88 524ft 4kts
26-Jun-20 07:57 33.258436 -116.314352 87 524ft 4kts
26-Jun-20 07:58 33.258251 -116.313154 89 524ft 0kts
26-Jun-20 07:59 33.258251 -116.313154 89 524ft 0kts
26-Jun-20 08:00 33.258290 -116.313048 49 524ft 1kts
26-Jun-20 08:00 33.258521 -116.312666 55 524ft 0kts
26-Jun-20 08:02 33.259099 -116.313225 269 524ft 15kts
26-Jun-20 08:02 33.258770 -116.333601 266 694ft 100kts
26-Jun-20 08:03 33.256399 -116.364550 262 1496ft 91kts
26-Jun-20 08:05 33.238309 -116.358031 79 2229ft 98kts
26-Jun-20 08:05 33.243554 -116.330374 77 2738ft 105kts
26-Jun-20 08:06 33.264323 -116.331704 274 3352ft 105kts
26-Jun-20 08:07 33.257604 -116.365762 256 3961ft 105kts
26-Jun-20 08:08 33.249057 -116.398778 241 4565ft 103kts
26-Jun-20 08:09 33.233542 -116.427251 236 5163ft 100kts
26-Jun-20 08:10 33.217951 -116.453962 236 5756ft 96kts
26-Jun-20 08:11 33.203110 -116.479232 236 6348ft 90kts
26-Jun-20 08:12 33.188398 -116.504298 236 6749ft 101kts
26-Jun-20 08:13 33.172414 -116.531514 236 7070ft 104kts
26-Jun-20 08:14 33.157040 -116.557645 236 7433ft 101kts
26-Jun-20 08:15 33.143491 -116.581753 253 7762ft 100kts
26-Jun-20 08:16 33.144045 -116.613112 275 8040ft 104kts
26-Jun-20 08:17 33.147713 -116.644922 276 8312ft 105kts
26-Jun-20 08:18 33.151572 -116.676469 275 8507ft 111kts
26-Jun-20 08:19 33.155851 -116.711165 276 8503ft 119kts
26-Jun-20 08:20 33.160348 -116.747758 276 8503ft 120kts
26-Jun-20 08:21 33.164724 -116.783489 276 8503ft 120kts
26-Jun-20 08:22 33.169041 -116.818836 276 8502ft 120kts
26-Jun-20 08:23 33.173354 -116.854239 276 8502ft 120kts
26-Jun-20 08:24 33.177655 -116.889625 276 8502ft 120kts
26-Jun-20 08:25 33.181946 -116.925010 276 8502ft 120kts
26-Jun-20 08:26 33.186220 -116.960352 276 8502ft 121kts
26-Jun-20 08:27 33.190438 -116.995309 276 8502ft 121kts
26-Jun-20 08:28 33.194542 -117.029404 276 8502ft 121kts
26-Jun-20 08:29 33.198645 -117.063604 276 8159ft 136kts
26-Jun-20 08:30 33.207343 -117.097914 317 7743ft 141kts
26-Jun-20 08:31 33.239107 -117.110924 347 7309ft 143kts
26-Jun-20 08:32 33.273820 -117.118411 348 6878ft 141kts
26-Jun-20 08:33 33.310378 -117.126137 348 6502ft 139kts
26-Jun-20 08:34 33.346411 -117.133744 348 6105ft 130kts
26-Jun-20 08:35 33.382059 -117.141311 348 5705ft 129kts
26-Jun-20 08:36 33.418195 -117.148984 349 5299ft 130kts
26-Jun-20 08:37 33.454475 -117.156674 349 4890ft 124kts
26-Jun-20 08:38 33.486370 -117.157467 18 4512ft 99kts
26-Jun-20 08:39 33.511260 -117.144208 23 4083ft 93kts
26-Jun-20 08:40 33.536577 -117.131186 23 3532ft 102kts
26-Jun-20 08:41 33.565451 -117.116788 19 2708ft 111kts
26-Jun-20 08:42 33.594508 -117.109227 10 2303ft 92kts
26-Jun-20 08:43 33.595623 -117.123834 180 1957ft 81kts
26-Jun-20 08:44 33.574587 -117.128385 193 1354ft 51kts
26-Jun-20 08:45 33.570022 -117.129973 278 1354ft 3kts
26-Jun-20 08:46 33.570990 -117.130156 13 1354ft 4kts
26-Jun-20 08:47 33.572158 -117.129850 13 1354ft 4kts
26-Jun-20 08:48 33.573321 -117.129525 15 1354ft 4kts
26-Jun-20 08:49 33.574487 -117.129223 12 1354ft 4kts
26-Jun-20 08:50 33.574981 -117.130284 279 1354ft 4kts
26-Jun-20 08:51 33.575574 -117.130630 70 1354ft 0kts
26-Jun-20 08:52 33.575579 -117.130532 90 1354ft 0kts
26-Jun-20 08:53 33.575579 -117.130532 90 1354ft 0kts
26-Jun-20 08:54 33.575579 -117.130532 90 1354ft 0kts
26-Jun-20 08:55 33.575579 -117.130532 90 1354ft 0kts
26-Jun-20 08:56 33.575579 -117.130532 90 1354ft 0kts
26-Jun-20 08:57 33.575579 -117.130532 90 1354ft 0kts
26-Jun-20 08:58 33.575579 -117.130532 90 1354ft 0kts
26-Jun-20 08:59 33.575579 -117.130532 90 1354ft 0kts

Navigation Log

Ident Type
Flight plan parsing failed, navigation log unavailable